Time;durP1;ratioP1;P1;durP2;ratioP2;P2;SDS_P1;SDS_P2;PMS_P1;PMS_P2;Temp;Humidity;BMP_temperature;BMP_pressure;BME280_temperature;BME280_humidity;BME280_pressure;Samples;Min_cycle;Max_cycle;Signal;HPM_P1;HPM_P2
2021/07/26 00:00:50;;;;;;;11.80;4.82;;;691.20;1254.40;;;;;;5095868;28;20028;-71
2021/07/26 00:03:15;;;;;;;7.55;4.50;;;691.20;1254.40;;;;;;5095825;28;20032;-68
2021/07/26 00:05:41;;;;;;;7.88;4.68;;;691.20;1254.40;;;;;;5095479;28;20492;-70
2021/07/26 00:08:07;;;;;;;6.93;4.78;;;691.20;1254.40;;;;;;5095837;28;20031;-72
2021/07/26 00:10:35;;;;;;;10.07;5.00;;;666.50;1254.40;;;;;;5095785;28;20113;-68
2021/07/26 00:13:01;;;;;;;9.93;4.50;;;691.20;1254.40;;;;;;5095698;28;20094;-68
2021/07/26 00:15:29;;;;;;;7.05;4.45;;;666.50;1254.40;;;;;;5095410;28;20024;-68
2021/07/26 00:17:55;;;;;;;9.77;4.82;;;666.50;1254.40;;;;;;5095432;28;20027;-68
2021/07/26 00:20:21;;;;;;;7.13;4.60;;;691.20;1254.40;;;;;;5095759;28;20468;-68
2021/07/26 00:22:48;;;;;;;10.50;5.47;;;666.50;1254.40;;;;;;5095433;28;20081;-68
2021/07/26 00:25:14;;;;;;;8.50;4.50;;;666.50;1254.40;;;;;;5095275;28;20372;-68
2021/07/26 00:27:39;;;;;;;6.60;4.47;;;666.50;1254.40;;;;;;5095158;28;20103;-69
2021/07/26 00:30:06;;;;;;;6.15;4.45;;;666.50;1254.40;;;;;;5095225;28;20051;-68
2021/07/26 00:32:34;;;;;;;6.13;4.75;;;666.50;1254.40;;;;;;5095123;28;20024;-68
2021/07/26 00:35:00;;;;;;;8.05;4.57;;;666.50;1254.40;;;;;;5095125;28;20053;-68
2021/07/26 00:37:26;;;;;;;7.32;4.63;;;666.50;1254.40;;;;;;5095227;28;20551;-68
2021/07/26 00:39:53;;;;;;;12.10;5.03;;;666.50;1254.40;;;;;;5094933;28;20036;-68
2021/07/26 00:42:19;;;;;;;9.38;5.30;;;666.50;1228.80;;;;;;5094825;28;20050;-68
2021/07/26 00:44:45;;;;;;;8.98;4.72;;;666.50;1228.80;;;;;;5094506;28;20159;-68
2021/07/26 00:47:11;;;;;;;12.18;4.93;;;666.50;1228.80;;;;;;5094899;28;20557;-68
2021/07/26 00:49:36;;;;;;;9.18;4.72;;;666.50;1228.80;;;;;;5095527;28;20103;-69
2021/07/26 00:52:03;;;;;;;15.63;4.72;;;666.50;1228.80;;;;;;5094689;28;20493;-70
2021/07/26 00:54:35;;;;;;;7.85;4.80;;;666.50;1228.80;;;;;;5094638;28;20028;-69
2021/07/26 00:57:03;;;;;;;8.77;4.40;;;666.50;1228.80;;;;;;5094858;28;20024;-69
2021/07/26 00:59:29;;;;;;;9.63;4.72;;;666.40;1228.80;;;;;;5094932;28;20115;-69
2021/07/26 01:01:56;;;;;;;5.90;4.55;;;666.40;1228.80;;;;;;5094598;28;20050;-69
2021/07/26 01:04:23;;;;;;;8.82;4.88;;;666.50;1228.80;;;;;;5094551;28;20036;-69
2021/07/26 01:06:49;;;;;;;12.63;4.78;;;666.50;1228.80;;;;;;5094725;28;20161;-68
2021/07/26 01:09:15;;;;;;;8.93;4.75;;;666.50;1228.80;;;;;;5094647;28;20032;-68
2021/07/26 01:11:41;;;;;;;11.50;5.18;;;666.50;1228.80;;;;;;5094394;28;20370;-69
2021/07/26 01:14:07;;;;;;;7.65;4.50;;;666.50;1228.80;;;;;;5094207;28;20030;-69
2021/07/26 01:16:33;;;;;;;12.82;4.70;;;666.50;1228.80;;;;;;5093322;28;20091;-69
2021/07/26 01:19:01;;;;;;;13.43;5.20;;;666.50;1228.80;;;;;;5094322;28;20020;-69
2021/07/26 01:21:27;;;;;;;10.68;5.10;;;666.40;1228.80;;;;;;5094451;28;20129;-65
2021/07/26 01:23:57;;;;;;;9.98;5.00;;;666.40;1228.80;;;;;;5094190;28;20032;-68
2021/07/26 01:26:25;;;;;;;7.10;5.13;;;666.40;1228.80;;;;;;5094389;28;20060;-68
2021/07/26 01:28:56;;;;;;;9.05;5.50;;;666.40;1228.80;;;;;;5094041;28;20095;-68
2021/07/26 01:31:23;;;;;;;7.50;4.95;;;666.40;1254.40;;;;;;5093771;28;20020;-68
2021/07/26 01:33:49;;;;;;;9.45;5.35;;;666.40;1254.40;;;;;;5094074;28;20028;-69
2021/07/26 01:36:16;;;;;;;6.25;5.13;;;666.40;1254.40;;;;;;5094172;28;20028;-69
2021/07/26 01:38:45;;;;;;;8.70;4.80;;;666.40;1254.40;;;;;;5093980;28;20114;-69
2021/07/26 01:41:24;;;;;;;7.53;5.20;;;666.40;1254.40;;;;;;5094129;28;20020;-68
2021/07/26 01:44:10;;;;;;;6.53;5.15;;;666.40;1254.40;;;;;;5092011;28;20079;-68
2021/07/26 01:46:53;;;;;;;8.93;5.22;;;666.30;1254.40;;;;;;5094024;28;20034;-68
2021/07/26 01:49:52;;;;;;;13.20;5.03;;;666.30;1254.40;;;;;;5094050;28;20032;-65
2021/07/26 01:52:19;;;;;;;12.23;4.82;;;666.30;1254.40;;;;;;5031693;28;20092;-69
2021/07/26 01:54:45;;;;;;;8.63;5.07;;;666.30;1280.00;;;;;;5031644;28;20025;-70
2021/07/26 01:57:11;;;;;;;11.45;5.22;;;666.30;1254.40;;;;;;5031757;28;20037;-70
2021/07/26 01:59:37;;;;;;;10.23;4.53;;;666.30;1254.40;;;;;;5031472;28;20112;-70
2021/07/26 02:02:03;;;;;;;9.35;5.10;;;666.20;1254.40;;;;;;5031834;28;20068;-69
2021/07/26 02:04:29;;;;;;;10.73;5.22;;;666.20;1254.40;;;;;;5031560;28;20072;-69
2021/07/26 02:06:55;;;;;;;7.78;4.95;;;666.20;1254.40;;;;;;5031508;28;20138;-69
2021/07/26 02:09:20;;;;;;;12.13;5.13;;;666.20;1254.40;;;;;;5031521;28;20073;-70
2021/07/26 02:11:46;;;;;;;6.72;5.05;;;666.20;1254.40;;;;;;5031625;28;20025;-70
2021/07/26 02:14:12;;;;;;;7.18;4.78;;;666.20;1254.40;;;;;;5031626;28;20161;-69
2021/07/26 02:16:39;;;;;;;8.20;4.80;;;666.20;1254.40;;;;;;5031436;28;20386;-69
2021/07/26 02:19:05;;;;;;;11.43;4.93;;;666.20;1254.40;;;;;;5031446;28;20115;-68
2021/07/26 02:21:31;;;;;;;8.70;5.15;;;666.20;1228.80;;;;;;5031403;28;20061;-69
2021/07/26 02:23:57;;;;;;;9.82;4.72;;;666.20;1228.80;;;;;;5031378;28;20049;-69
2021/07/26 02:26:23;;;;;;;8.73;4.80;;;666.20;1228.80;;;;;;5031528;28;20033;-69
2021/07/26 02:28:49;;;;;;;6.78;4.78;;;666.20;1228.80;;;;;;5068284;28;20070;-69
2021/07/26 02:31:15;;;;;;;7.40;4.22;;;666.20;1228.80;;;;;;5093077;28;20373;-69
2021/07/26 02:33:40;;;;;;;9.70;5.72;;;666.20;1228.80;;;;;;5093505;28;20474;-69
2021/07/26 02:36:06;;;;;;;9.10;5.50;;;666.20;1228.80;;;;;;5093462;28;20020;-69
2021/07/26 02:38:32;;;;;;;10.52;4.82;;;666.30;1228.80;;;;;;5093317;28;20111;-70
2021/07/26 02:40:57;;;;;;;13.82;5.68;;;666.20;1228.80;;;;;;5093553;28;20032;-70
2021/07/26 02:43:23;;;;;;;19.48;5.40;;;666.20;1280.00;;;;;;5096487;28;20080;-70
2021/07/26 02:45:49;;;;;;;14.07;5.10;;;666.00;1356.80;;;;;;5097371;28;20024;-70
2021/07/26 02:48:14;;;;;;;11.48;5.10;;;665.80;1382.40;;;;;;5097423;28;20437;-70
2021/07/26 02:50:40;;;;;;;9.75;4.70;;;665.80;1382.40;;;;;;5097371;28;20072;-70
2021/07/26 02:53:06;;;;;;;6.95;5.40;;;665.70;1382.40;;;;;;5097023;28;20031;-69
2021/07/26 02:55:32;;;;;;;8.60;4.68;;;665.70;1408.00;;;;;;5096852;28;20035;-68
2021/07/26 02:57:58;;;;;;;9.63;4.80;;;665.60;1408.00;;;;;;5097116;28;20024;-70
2021/07/26 03:00:24;;;;;;;10.48;5.00;;;665.60;1408.00;;;;;;5097103;28;20032;-69
2021/07/26 03:02:51;;;;;;;12.50;4.80;;;640.80;1382.40;;;;;;5096995;28;20107;-69
2021/07/26 03:05:16;;;;;;;11.02;5.18;;;640.80;1382.40;;;;;;5095137;28;20128;-70
2021/07/26 03:07:42;;;;;;;8.30;4.90;;;640.70;1382.40;;;;;;5096973;28;20490;-70
2021/07/26 03:10:08;;;;;;;8.68;4.72;;;640.70;1382.40;;;;;;5096880;28;20028;-70
2021/07/26 03:12:34;;;;;;;7.85;4.70;;;640.70;1382.40;;;;;;5096720;28;20024;-70
2021/07/26 03:15:00;;;;;;;11.45;4.97;;;640.70;1382.40;;;;;;5096607;28;20045;-70
2021/07/26 03:17:25;;;;;;;6.60;4.85;;;640.60;1382.40;;;;;;5096613;28;20441;-69
2021/07/26 03:19:55;;;;;;;9.75;4.72;;;640.60;1382.40;;;;;;5096727;28;20023;-69
2021/07/26 03:22:51;;;;;;;9.00;5.63;;;640.60;1382.40;;;;;;5096684;28;20028;-69
2021/07/26 03:25:18;;;;;;;8.07;4.70;;;640.50;1382.40;;;;;;5096537;28;20040;-69
2021/07/26 03:27:43;;;;;;;11.55;5.05;;;640.50;1382.40;;;;;;5096505;28;20044;-68
2021/07/26 03:30:10;;;;;;;7.45;4.75;;;640.40;1382.40;;;;;;5096249;28;20074;-68
2021/07/26 03:32:35;;;;;;;8.07;4.80;;;640.50;1382.40;;;;;;5096496;28;20024;-69
2021/07/26 03:35:01;;;;;;;8.32;5.30;;;640.40;1408.00;;;;;;5096405;28;20108;-70
2021/07/26 03:37:27;;;;;;;11.68;5.43;;;640.40;1408.00;;;;;;5096083;28;20103;-70
2021/07/26 03:39:52;;;;;;;14.82;5.40;;;640.40;1433.60;;;;;;5096250;28;20070;-69
2021/07/26 03:42:18;;;;;;;11.95;5.20;;;640.40;1433.60;;;;;;5095962;28;20048;-67
2021/07/26 03:44:44;;;;;;;13.75;4.50;;;640.30;1433.60;;;;;;5096126;28;20035;-67
2021/07/26 03:47:09;;;;;;;9.88;5.20;;;640.40;1433.60;;;;;;5096213;28;20381;-67
2021/07/26 03:49:35;;;;;;;17.20;5.35;;;640.30;1433.60;;;;;;5096228;28;20031;-66
2021/07/26 03:52:01;;;;;;;10.93;5.40;;;640.30;1433.60;;;;;;5095960;28;20412;-65
2021/07/26 03:54:26;;;;;;;13.35;5.35;;;640.40;1433.60;;;;;;5095661;28;20027;-70
2021/07/26 03:56:57;;;;;;;8.85;4.30;;;640.40;1433.60;;;;;;5095754;28;20394;-67
2021/07/26 03:59:25;;;;;;;8.80;5.43;;;640.40;1408.00;;;;;;5095926;28;20039;-66
2021/07/26 04:01:55;;;;;;;9.73;5.10;;;640.30;1408.00;;;;;;5096006;28;20020;-68
2021/07/26 04:04:22;;;;;;;7.75;4.88;;;640.30;1433.60;;;;;;5095839;28;20393;-68
2021/07/26 04:06:52;;;;;;;7.13;4.68;;;640.30;1408.00;;;;;;5094430;28;20477;-68
2021/07/26 04:09:19;;;;;;;10.82;4.90;;;640.20;1408.00;;;;;;5095646;28;20035;-68
2021/07/26 04:11:47;;;;;;;11.48;5.35;;;640.20;1408.00;;;;;;5095498;28;20353;-67
2021/07/26 04:14:14;;;;;;;10.90;5.00;;;640.20;1408.00;;;;;;5095535;28;20022;-67
2021/07/26 04:16:40;;;;;;;9.63;4.80;;;640.20;1408.00;;;;;;5095562;28;20032;-70
2021/07/26 04:19:06;;;;;;;9.20;4.40;;;640.20;1408.00;;;;;;5095484;28;20041;-68
2021/07/26 04:21:33;;;;;;;7.72;5.13;;;640.30;1408.00;;;;;;5095372;28;20028;-68
2021/07/26 04:23:59;;;;;;;9.90;4.47;;;640.30;1382.40;;;;;;5095382;28;20059;-68
2021/07/26 04:26:25;;;;;;;9.25;4.90;;;640.30;1408.00;;;;;;5095213;28;20012;-67
2021/07/26 04:28:51;;;;;;;6.95;4.70;;;640.40;1408.00;;;;;;5095304;28;20034;-67
2021/07/26 04:31:17;;;;;;;13.45;4.93;;;640.50;1408.00;;;;;;5095282;28;20050;-67
2021/07/26 04:33:43;;;;;;;6.63;4.50;;;640.50;1408.00;;;;;;5094894;28;20020;-66
2021/07/26 04:36:09;;;;;;;9.00;4.55;;;640.50;1408.00;;;;;;5095322;28;20095;-66
2021/07/26 04:38:35;;;;;;;9.25;5.30;;;640.50;1408.00;;;;;;5094871;28;20020;-66
2021/07/26 04:41:01;;;;;;;8.27;4.65;;;640.50;1382.40;;;;;;5095221;28;20031;-67
2021/07/26 04:43:28;;;;;;;6.43;4.47;;;640.50;1408.00;;;;;;5094699;28;20079;-67
2021/07/26 04:45:55;;;;;;;10.05;5.38;;;640.60;1382.40;;;;;;5094757;28;20061;-67
2021/07/26 04:48:21;;;;;;;8.32;4.93;;;640.60;1382.40;;;;;;5093673;28;20485;-67
2021/07/26 04:50:47;;;;;;;7.00;4.07;;;640.70;1382.40;;;;;;5094865;28;20051;-67
2021/07/26 04:53:13;;;;;;;7.68;4.38;;;640.60;1356.80;;;;;;5094841;28;20070;-67
2021/07/26 04:55:39;;;;;;;10.02;4.90;;;640.70;1356.80;;;;;;5094895;28;20036;-67
2021/07/26 04:58:05;;;;;;;8.18;5.20;;;640.70;1356.80;;;;;;5094796;28;20024;-67
2021/07/26 05:00:30;;;;;;;11.52;4.47;;;640.80;1356.80;;;;;;5094500;28;20091;-66
2021/07/26 05:02:57;;;;;;;10.70;4.50;;;640.80;1356.80;;;;;;5094642;28;20032;-67
2021/07/26 05:05:23;;;;;;;8.38;4.55;;;640.90;1331.20;;;;;;5094380;28;20028;-65
2021/07/26 05:07:48;;;;;;;9.93;4.57;;;665.60;1382.40;;;;;;5093352;28;20043;-67
2021/07/26 05:10:14;;;;;;;7.13;4.68;;;665.60;1356.80;;;;;;5094858;28;20462;-67
2021/07/26 05:12:42;;;;;;;7.15;4.57;;;665.60;1356.80;;;;;;5093960;28;20032;-68
2021/07/26 05:15:08;;;;;;;10.85;4.93;;;665.70;1356.80;;;;;;5094563;28;20024;-68
2021/07/26 05:17:34;;;;;;;11.07;4.65;;;665.80;1356.80;;;;;;5094184;28;20035;-67
2021/07/26 05:19:59;;;;;;;6.18;4.32;;;665.80;1331.20;;;;;;5094519;28;20020;-68
2021/07/26 05:22:25;;;;;;;5.88;4.65;;;666.00;1331.20;;;;;;5094310;28;20060;-68
2021/07/26 05:24:51;;;;;;;9.80;5.50;;;666.00;1331.20;;;;;;5094287;28;20028;-68
2021/07/26 05:27:17;;;;;;;6.38;4.43;;;666.00;1305.60;;;;;;5092829;28;20474;-68
2021/07/26 05:29:43;;;;;;;7.80;5.15;;;666.10;1305.60;;;;;;5094048;28;20102;-66
2021/07/26 05:32:09;;;;;;;6.30;3.97;;;666.10;1305.60;;;;;;5094001;28;20020;-67
2021/07/26 05:34:35;;;;;;;10.43;4.43;;;666.30;1305.60;;;;;;5094036;28;20158;-67
2021/07/26 05:37:01;;;;;;;12.88;4.80;;;666.30;1331.20;;;;;;5093709;28;20024;-66
2021/07/26 05:39:27;;;;;;;7.50;4.30;;;666.40;1331.20;;;;;;5092586;28;20024;-66
2021/07/26 05:41:58;;;;;;;10.85;4.78;;;691.20;1305.60;;;;;;5093948;28;20044;-66
2021/07/26 05:44:24;;;;;;;9.88;4.57;;;691.30;1305.60;;;;;;5093885;28;20054;-66
2021/07/26 05:46:50;;;;;;;9.52;5.00;;;691.30;1305.60;;;;;;5093941;28;20478;-67
2021/07/26 05:49:16;;;;;;;10.88;4.70;;;691.40;1305.60;;;;;;5093733;28;20050;-66
2021/07/26 05:51:42;;;;;;;12.38;4.65;;;691.50;1305.60;;;;;;5093738;28;20478;-66
2021/07/26 05:54:08;;;;;;;11.23;4.80;;;691.70;1280.00;;;;;;5093759;28;20036;-67
2021/07/26 05:56:40;;;;;;;12.25;5.20;;;691.70;1305.60;;;;;;5093370;28;20054;-66
2021/07/26 05:59:06;;;;;;;8.27;4.95;;;691.80;1280.00;;;;;;5093693;28;20473;-66
2021/07/26 06:01:47;;;;;;;13.60;5.13;;;691.90;1280.00;;;;;;5093908;28;20046;-66
2021/07/26 06:04:21;;;;;;;6.88;4.55;;;692.00;1254.40;;;;;;5093639;28;20036;-66
2021/07/26 06:06:48;;;;;;;10.68;4.95;;;716.80;1280.00;;;;;;5093599;28;20032;-66
2021/07/26 06:09:14;;;;;;;7.95;4.47;;;716.80;1280.00;;;;;;5093599;28;20462;-66
2021/07/26 06:11:41;;;;;;;13.63;4.80;;;716.80;1280.00;;;;;;5093836;28;20115;-66
2021/07/26 06:14:08;;;;;;;36.13;7.70;;;716.90;1254.40;;;;;;5093788;28;20024;-66
2021/07/26 06:16:34;;;;;;;17.95;5.07;;;716.90;1280.00;;;;;;5095996;28;20020;-66
2021/07/26 06:19:07;;;;;;;12.40;4.80;;;717.00;1280.00;;;;;;5097819;28;20051;-66
2021/07/26 06:21:33;;;;;;;6.73;4.63;;;717.00;1280.00;;;;;;5097717;28;20389;-66
2021/07/26 06:23:58;;;;;;;12.90;4.68;;;717.20;1254.40;;;;;;5097549;28;20028;-66
2021/07/26 06:26:24;;;;;;;11.35;4.75;;;717.30;1254.40;;;;;;5097820;28;20027;-68
2021/07/26 06:28:51;;;;;;;14.90;4.93;;;717.40;1228.80;;;;;;5097705;28;20031;-67
2021/07/26 06:31:17;;;;;;;16.65;5.45;;;717.50;1254.40;;;;;;5097477;28;20020;-66
2021/07/26 06:33:43;;;;;;;11.07;4.47;;;717.60;1254.40;;;;;;5097682;28;20032;-65
2021/07/26 06:36:09;;;;;;;15.40;4.90;;;742.40;1254.40;;;;;;5096871;28;20417;-66
2021/07/26 06:38:36;;;;;;;14.77;4.90;;;742.60;1254.40;;;;;;5093045;28;20033;-71
2021/07/26 06:41:02;;;;;;;12.80;5.22;;;742.70;1228.80;;;;;;5095365;28;20027;-66
2021/07/26 06:43:27;;;;;;;8.38;5.20;;;743.00;1203.20;;;;;;5097080;28;20561;-67
2021/07/26 06:45:53;;;;;;;12.38;4.82;;;743.10;1203.20;;;;;;5096983;28;20485;-66
2021/07/26 06:48:20;;;;;;;9.70;5.35;;;743.30;1177.60;;;;;;5096909;28;20086;-66
2021/07/26 06:50:45;;;;;;;10.60;5.43;;;768.20;1152.00;;;;;;5096588;28;20016;-70
2021/07/26 06:53:11;;;;;;;17.42;7.82;;;768.50;1152.00;;;;;;5096656;28;20028;-67
2021/07/26 06:55:37;;;;;;;20.05;7.90;;;768.70;1152.00;;;;;;5096959;28;20076;-66
2021/07/26 06:58:04;;;;;;;18.58;6.97;;;793.60;1177.60;;;;;;5096874;28;20021;-69
2021/07/26 07:00:30;;;;;;;10.35;5.47;;;793.70;1152.00;;;;;;5096177;28;20031;-69
2021/07/26 07:02:57;;;;;;;10.32;5.38;;;794.00;1126.40;;;;;;5095435;28;20186;-70
2021/07/26 07:05:22;;;;;;;8.77;5.18;;;794.10;1126.40;;;;;;5095422;28;20054;-70
2021/07/26 07:07:48;;;;;;;13.85;6.13;;;794.20;1100.80;;;;;;5094737;28;20474;-69
2021/07/26 07:10:14;;;;;;;13.30;5.97;;;794.20;1126.40;;;;;;5092619;28;20028;-71
2021/07/26 07:12:39;;;;;;;16.05;6.93;;;794.30;1126.40;;;;;;5094568;28;20026;-71
2021/07/26 07:15:06;;;;;;;21.30;6.47;;;794.20;1126.40;;;;;;5095378;28;20035;-71
2021/07/26 07:17:32;;;;;;;13.43;5.20;;;794.30;1126.40;;;;;;5095265;28;20094;-71
2021/07/26 07:19:58;;;;;;;13.50;5.72;;;794.50;1100.80;;;;;;5095235;28;20107;-71
2021/07/26 07:22:23;;;;;;;8.80;5.25;;;819.40;1100.80;;;;;;5094974;28;20099;-67
2021/07/26 07:24:49;;;;;;;9.82;5.43;;;819.40;1100.80;;;;;;5096675;28;20122;-68
2021/07/26 07:27:15;;;;;;;18.95;6.47;;;819.50;1100.80;;;;;;5095303;28;20024;-67
2021/07/26 07:29:41;;;;;;;9.73;6.20;;;819.60;1100.80;;;;;;5096357;28;20376;-71
2021/07/26 07:32:11;;;;;;;11.60;5.00;;;819.70;1075.20;;;;;;5096451;28;20378;-66
2021/07/26 07:34:38;;;;;;;13.73;5.90;;;819.80;1075.20;;;;;;5096392;28;20028;-63
2021/07/26 07:37:05;;;;;;;18.35;5.30;;;819.90;1075.20;;;;;;5096329;28;20081;-63
2021/07/26 07:39:31;;;;;;;12.25;5.45;;;820.00;1049.60;;;;;;5095965;28;20032;-63
2021/07/26 07:41:57;;;;;;;12.50;5.53;;;844.80;1049.60;;;;;;5096020;28;20524;-63
2021/07/26 07:44:29;;;;;;;14.38;5.22;;;844.90;1049.60;;;;;;5096067;28;20032;-63
2021/07/26 07:46:55;;;;;;;10.55;5.88;;;845.20;1049.60;;;;;;5096338;28;20077;-63
2021/07/26 07:49:21;;;;;;;10.55;5.20;;;845.30;1024.00;;;;;;5096360;28;20103;-63
2021/07/26 07:51:48;;;;;;;8.40;5.28;;;845.40;1024.00;;;;;;5096356;28;20111;-63
2021/07/26 07:54:13;;;;;;;11.10;5.22;;;845.60;1024.00;;;;;;5096099;28;20039;-63
2021/07/26 07:56:39;;;;;;;8.23;5.28;;;845.70;998.40;;;;;;5095954;28;20342;-61
2021/07/26 07:59:07;;;;;;;7.80;5.78;;;870.40;972.80;;;;;;5095953;28;20020;-61
2021/07/26 08:01:33;;;;;;;11.57;5.65;;;870.60;972.80;;;;;;5095799;28;20458;-61
2021/07/26 08:03:59;;;;;;;10.77;5.80;;;870.60;972.80;;;;;;5095529;28;20050;-61
2021/07/26 08:06:25;;;;;;;9.88;5.63;;;870.70;947.20;;;;;;5094399;28;20083;-61
2021/07/26 08:08:50;;;;;;;15.10;5.60;;;870.80;947.20;;;;;;5095761;28;20478;-61
2021/07/26 08:11:16;;;;;;;15.27;6.72;;;871.00;947.20;;;;;;5095858;28;20021;-62
2021/07/26 08:13:42;;;;;;;11.32;6.05;;;871.10;947.20;;;;;;5095891;28;20064;-61
2021/07/26 08:16:07;;;;;;;30.80;6.78;;;871.20;921.60;;;;;;5095497;28;20024;-60
2021/07/26 08:18:33;;;;;;;18.75;5.75;;;896.00;921.60;;;;;;5095728;28;20028;-61
2021/07/26 08:21:00;;;;;;;19.27;6.30;;;896.10;921.60;;;;;;5095567;28;20024;-61
2021/07/26 08:23:25;;;;;;;13.15;5.55;;;896.20;921.60;;;;;;5094102;28;20040;-61
2021/07/26 08:25:51;;;;;;;16.40;5.95;;;896.50;921.60;;;;;;5095542;28;20020;-64
2021/07/26 08:28:17;;;;;;;10.65;6.10;;;896.60;921.60;;;;;;5095499;28;20028;-61
2021/07/26 08:30:43;;;;;;;16.35;7.05;;;896.70;921.60;;;;;;5095491;28;20028;-61
2021/07/26 08:33:10;;;;;;;8.07;5.70;;;896.80;896.00;;;;;;5094837;28;20020;-63
2021/07/26 08:35:36;;;;;;;16.90;5.97;;;896.90;896.00;;;;;;5095213;28;20035;-66
2021/07/26 08:38:03;;;;;;;11.75;6.10;;;921.60;896.00;;;;;;5095212;28;20377;-62
2021/07/26 08:40:31;;;;;;;13.05;6.90;;;921.60;896.00;;;;;;5095299;28;20024;-62
2021/07/26 08:43:03;;;;;;;13.15;6.13;;;921.70;896.00;;;;;;5094860;28;20473;-63
2021/07/26 08:45:32;;;;;;;11.05;6.90;;;921.90;896.00;;;;;;5094983;28;20529;-62
2021/07/26 08:48:04;;;;;;;11.27;6.13;;;922.10;896.00;;;;;;5094962;28;20038;-61
2021/07/26 08:50:33;;;;;;;14.27;6.88;;;922.20;896.00;;;;;;5095133;28;20154;-61
2021/07/26 08:53:00;;;;;;;9.70;5.70;;;922.40;896.00;;;;;;5094655;28;20028;-65
2021/07/26 08:55:26;;;;;;;12.98;6.22;;;947.20;870.40;;;;;;5094906;28;20027;-62
2021/07/26 08:57:52;;;;;;;9.73;6.15;;;947.40;870.40;;;;;;5094821;28;20427;-62
2021/07/26 09:00:20;;;;;;;13.55;6.25;;;947.60;870.40;;;;;;5094469;28;20020;-62
2021/07/26 09:02:46;;;;;;;8.75;5.68;;;947.70;870.40;;;;;;5094723;28;20028;-62
2021/07/26 09:05:13;;;;;;;12.45;5.78;;;947.80;870.40;;;;;;5094558;28;20120;-62
2021/07/26 09:07:43;;;;;;;8.15;6.10;;;947.90;870.40;;;;;;5094450;28;20031;-62
2021/07/26 09:10:23;;;;;;;11.90;6.22;;;948.00;844.80;;;;;;5094513;28;20474;-61
2021/07/26 09:12:51;;;;;;;8.73;6.25;;;972.80;844.80;;;;;;5094503;28;20024;-62
2021/07/26 09:15:17;;;;;;;9.40;6.15;;;972.80;870.40;;;;;;5094334;28;20531;-66
2021/07/26 09:17:45;;;;;;;12.90;6.55;;;973.00;844.80;;;;;;5094591;28;20036;-63
2021/07/26 09:20:12;;;;;;;8.23;6.05;;;973.00;870.40;;;;;;5094314;28;20030;-64
2021/07/26 09:22:47;;;;;;;15.65;6.00;;;973.00;844.80;;;;;;5094436;28;20445;-63
2021/07/26 09:25:26;;;;;;;11.25;6.20;;;973.00;844.80;;;;;;5094212;28;20050;-63
2021/07/26 09:28:10;;;;;;;11.70;6.78;;;973.10;870.40;;;;;;5093932;28;20028;-63
2021/07/26 09:30:44;;;;;;;7.13;6.43;;;973.20;844.80;;;;;;5092787;28;20114;-63
2021/07/26 09:33:18;;;;;;;12.65;6.28;;;973.30;844.80;;;;;;5094357;28;20024;-63
2021/07/26 09:35:44;;;;;;;15.00;6.90;;;973.30;870.40;;;;;;5094275;28;20028;-63
2021/07/26 09:38:11;;;;;;;10.77;5.90;;;973.40;844.80;;;;;;5094107;28;20093;-63
2021/07/26 09:40:37;;;;;;;9.68;6.28;;;973.40;844.80;;;;;;5094259;28;20032;-63
2021/07/26 09:43:19;;;;;;;17.52;6.72;;;973.60;844.80;;;;;;5093777;28;20408;-63
2021/07/26 09:45:46;;;;;;;14.60;6.82;;;998.40;870.40;;;;;;5093891;28;20039;-63
2021/07/26 09:48:14;;;;;;;12.95;6.00;;;998.40;844.80;;;;;;5093936;28;20073;-64
2021/07/26 09:50:40;;;;;;;14.02;6.43;;;998.40;844.80;;;;;;5093426;28;20107;-63
2021/07/26 09:53:27;;;;;;;12.95;6.05;;;998.50;844.80;;;;;;5094036;28;20457;-67
2021/07/26 09:56:14;;;;;;;14.27;7.35;;;998.50;844.80;;;;;;5093956;28;20035;-63
2021/07/26 09:58:41;;;;;;;12.27;7.15;;;998.70;819.20;;;;;;5094039;28;20091;-66
2021/07/26 10:01:09;;;;;;;11.07;6.88;;;998.70;819.20;;;;;;5093698;28;20024;-64
2021/07/26 10:03:39;;;;;;;17.33;7.05;;;998.80;819.20;;;;;;5093565;28;20024;-63
2021/07/26 10:06:06;;;;;;;14.40;7.68;;;998.90;819.20;;;;;;5093573;28;20020;-63
2021/07/26 10:08:32;;;;;;;14.52;7.05;;;999.00;819.20;;;;;;5093622;28;20048;-64
2021/07/26 10:10:58;;;;;;;20.58;7.63;;;999.10;819.20;;;;;;5093993;28;20097;-64
2021/07/26 10:13:24;;;;;;;11.93;7.28;;;999.10;819.20;;;;;;5094125;28;20572;-66
2021/07/26 10:15:51;;;;;;;13.50;6.50;;;999.10;819.20;;;;;;5093667;28;20017;-63
2021/07/26 10:18:17;;;;;;;11.45;6.88;;;999.00;819.20;;;;;;5093602;28;20457;-62
2021/07/26 10:21:01;;;;;;;12.68;7.68;;;999.10;819.20;;;;;;5093731;28;20028;-66
2021/07/26 10:24:08;;;;;;;15.15;7.18;;;999.20;819.20;;;;;;5093306;28;20469;-67
2021/07/26 10:26:39;;;;;;;19.50;7.50;;;999.30;793.60;;;;;;5031239;28;20531;-66
2021/07/26 10:29:05;;;;;;;15.90;7.60;;;1024.00;793.60;;;;;;5029708;28;20067;-67
2021/07/26 10:31:30;;;;;;;10.50;7.47;;;1024.00;793.60;;;;;;5029691;28;20029;-67
2021/07/26 10:34:17;;;;;;;22.95;8.02;;;1024.10;793.60;;;;;;5029926;28;20026;-66
2021/07/26 10:36:43;;;;;;;14.18;7.55;;;1024.10;793.60;;;;;;5029790;28;20514;-66
2021/07/26 10:39:09;;;;;;;10.18;6.80;;;1024.20;793.60;;;;;;5029743;28;20030;-67
2021/07/26 10:41:44;;;;;;;11.75;7.15;;;1024.20;793.60;;;;;;5031212;28;20029;-66
2021/07/26 10:44:32;;;;;;;14.48;7.15;;;1024.10;793.60;;;;;;5030769;28;20438;-65
2021/07/26 10:47:06;;;;;;;14.23;7.55;;;1024.10;793.60;;;;;;4952965;29;20035;-65
2021/07/26 10:49:38;;;;;;;12.73;6.93;;;1024.10;793.60;;;;;;4953115;29;20556;-65
2021/07/26 10:52:04;;;;;;;11.50;7.50;;;1024.10;793.60;;;;;;4953170;29;20101;-65
2021/07/26 10:54:36;;;;;;;17.63;7.07;;;1024.10;793.60;;;;;;4953711;29;20035;-66
2021/07/26 10:57:02;;;;;;;14.88;6.72;;;1024.10;793.60;;;;;;4975498;28;20029;-65
2021/07/26 10:59:51;;;;;;;17.63;8.05;;;1024.30;793.60;;;;;;5011217;28;20472;-65
2021/07/26 11:02:35;;;;;;;13.43;7.45;;;1024.30;793.60;;;;;;5011237;28;20022;-65
2021/07/26 11:05:25;;;;;;;10.88;7.50;;;1024.20;819.20;;;;;;5014621;28;20072;-65
2021/07/26 11:08:25;;;;;;;14.15;7.50;;;1024.10;819.20;;;;;;5014798;28;20025;-65
2021/07/26 11:10:57;;;;;;;16.52;8.18;;;1024.30;819.20;;;;;;4956377;29;20047;-65
2021/07/26 11:13:23;;;;;;;12.68;7.82;;;1024.30;844.80;;;;;;4956649;29;20075;-68
2021/07/26 11:15:54;;;;;;;22.23;8.73;;;1024.50;819.20;;;;;;4956204;29;20127;-67
2021/07/26 11:18:32;;;;;;;15.52;7.95;;;1024.30;819.20;;;;;;4956327;29;20438;-65
2021/07/26 11:21:17;;;;;;;18.08;8.23;;;1024.20;819.20;;;;;;4956537;29;20473;-65
2021/07/26 11:23:51;;;;;;;17.35;8.27;;;1024.20;819.20;;;;;;4985759;28;20557;-67
2021/07/26 11:26:29;;;;;;;13.10;7.97;;;1024.30;819.20;;;;;;5034325;28;20048;-66
2021/07/26 11:29:00;;;;;;;14.55;8.18;;;1024.50;793.60;;;;;;5034587;28;20426;-67
2021/07/26 11:31:30;;;;;;;12.15;8.10;;;1024.50;793.60;;;;;;5034051;28;20025;-67
2021/07/26 11:34:05;;;;;;;18.30;8.45;;;1024.60;793.60;;;;;;5034502;28;20479;-65
2021/07/26 11:36:31;;;;;;;13.57;8.00;;;1024.70;768.00;;;;;;5052483;28;20485;-63
2021/07/26 11:39:09;;;;;;;13.10;7.88;;;1024.80;768.00;;;;;;5051998;28;20091;-63
2021/07/26 11:41:35;;;;;;;16.98;8.45;;;1024.80;768.00;;;;;;5052110;28;20021;-63
2021/07/26 11:44:01;;;;;;;15.48;8.88;;;1024.80;768.00;;;;;;5051833;28;20033;-65
2021/07/26 11:46:28;;;;;;;13.32;7.85;;;1024.80;768.00;;;;;;5074742;28;20474;-63
2021/07/26 11:48:58;;;;;;;19.95;8.15;;;1024.80;768.00;;;;;;5094820;28;20040;-66
2021/07/26 11:51:29;;;;;;;15.45;8.60;;;1024.80;793.60;;;;;;5094928;28;20016;-64
2021/07/26 11:54:02;;;;;;;13.75;8.93;;;1024.80;793.60;;;;;;5094762;28;20016;-66
2021/07/26 11:56:29;;;;;;;18.25;8.35;;;1024.80;793.60;;;;;;5094234;28;20373;-66
2021/07/26 11:59:21;;;;;;;17.70;8.10;;;1024.70;793.60;;;;;;5093953;28;20047;-65
2021/07/26 12:01:55;;;;;;;12.82;8.10;;;1024.70;793.60;;;;;;5094093;28;20024;-66
2021/07/26 12:04:25;;;;;;;17.52;7.57;;;1024.70;793.60;;;;;;5094253;28;20039;-66
2021/07/26 12:06:53;;;;;;;14.45;8.70;;;1024.70;793.60;;;;;;5091487;28;20062;-65
2021/07/26 12:09:19;;;;;;;19.10;8.57;;;1024.70;793.60;;;;;;5094467;28;20377;-66
2021/07/26 12:11:45;;;;;;;18.88;7.78;;;1024.70;742.40;;;;;;5094253;28;20055;-63
2021/07/26 12:14:27;;;;;;;16.33;7.65;;;1024.60;742.40;;;;;;5093729;28;20055;-65
2021/07/26 12:17:21;;;;;;;19.73;8.82;;;1024.30;742.40;;;;;;5091542;28;20374;-65
2021/07/26 12:20:04;;;;;;;18.65;10.93;;;1024.20;742.40;;;;;;5092079;28;20026;-66